^^
Station Historical Data
 
Daily Summary for July 22, 2017 Units:  Metric    English   Both
« Previous Day
Next Day »
Daily Weekly Monthly Yearly Custom
  Current: High: Low: Average:
Temperature: 29.3 °C 31.7 °C 20.9 °C 26.4 °C
Dew Point: 20.7 °C 22.4 °C 12.9 °C 17.6 °C
Humidity: 60% 69% 50% 59%
Wind Speed: 8.0km/h 11.3km/h 0.0km/h 4.7km/h
Wind Gust: 12.9km/h 16.1km/h - -
WindNE - - SSE
Pressure: 1013.8 hPa 1015.5 hPa 1013.1 hPa -
Precipitation: 0.0 mm      
Historical Graphs
 
 
Tabular Data for July 22, 2017
Time Temperature Dew Point Pressure Wind Wind Speed Wind Gust Humidity Rainfall Rate (Hourly) solar Conditions
00:02 24.5 °C 14.0 °C 1013.1 hPa West 3.2 km/h 8.0 km/h 52% 0.0 mm 0 W/m2
00:07 24.4 °C 14.2 °C 1013.1 hPa West 3.2 km/h 8.0 km/h 53% 0.0 mm 0 W/m2
00:12 24.3 °C 14.1 °C 1013.1 hPa West 4.8 km/h 9.7 km/h 53% 0.0 mm 0 W/m2
00:17 24.2 °C 14.0 °C 1013.1 hPa West 4.8 km/h 9.7 km/h 53% 0.0 mm 0 W/m2
00:22 24.1 °C 14.2 °C 1013.1 hPa West 4.8 km/h 6.4 km/h 54% 0.0 mm 0 W/m2
00:27 23.9 °C 13.8 °C 1013.1 hPa West 4.8 km/h 9.7 km/h 53% 0.0 mm 0 W/m2
00:32 23.9 °C 13.4 °C 1013.1 hPa West 4.8 km/h 9.7 km/h 52% 0.0 mm 0 W/m2
00:37 23.9 °C 13.4 °C 1013.4 hPa West 4.8 km/h 9.7 km/h 52% 0.0 mm 0 W/m2
00:42 23.9 °C 13.1 °C 1013.1 hPa WSW 4.8 km/h 9.7 km/h 51% 0.0 mm 0 W/m2
00:47 23.9 °C 12.9 °C 1013.4 hPa WSW 4.8 km/h 9.7 km/h 50% 0.0 mm 0 W/m2
00:52 24.0 °C 13.2 °C 1013.4 hPa WSW 3.2 km/h 8.0 km/h 51% 0.0 mm 0 W/m2
00:57 24.1 °C 13.3 °C 1013.1 hPa WSW 1.6 km/h 6.4 km/h 51% 0.0 mm 0 W/m2
01:02 24.2 °C 13.4 °C 1013.1 hPa SW 3.2 km/h 8.0 km/h 51% 0.0 mm 0 W/m2
01:07 24.2 °C 13.4 °C 1013.1 hPa SW 3.2 km/h 8.0 km/h 51% 0.0 mm 0 W/m2
01:13 24.2 °C 13.4 °C 1013.4 hPa WSW 4.8 km/h 9.7 km/h 51% 0.0 mm 0 W/m2
01:17 24.3 °C 13.2 °C 1013.1 hPa West 4.8 km/h 9.7 km/h 50% 0.0 mm 0 W/m2
01:22 24.3 °C 13.5 °C 1013.1 hPa West 3.2 km/h 8.0 km/h 51% 0.0 mm 0 W/m2
01:27 24.4 °C 13.6 °C 1013.4 hPa West 1.6 km/h 6.4 km/h 51% 0.0 mm 0 W/m2
01:33 24.3 °C 13.5 °C 1013.4 hPa Calm   3.2 km/h 51% 0.0 mm 0 W/m2
01:38 24.3 °C 13.8 °C 1013.4 hPa Calm   4.8 km/h 52% 0.0 mm 0 W/m2
01:43 24.2 °C 14.6 °C 1013.4 hPa North 3.2 km/h 6.4 km/h 55% 0.0 mm 0 W/m2
01:48 23.9 °C 14.9 °C 1013.4 hPa NNW 4.8 km/h 8.0 km/h 57% 0.0 mm 0 W/m2
01:53 23.8 °C 15.3 °C 1013.4 hPa NW 4.8 km/h 8.0 km/h 59% 0.0 mm 0 W/m2
01:58 23.7 °C 15.4 °C 1013.4 hPa NW 4.8 km/h 8.0 km/h 60% 0.0 mm 0 W/m2
02:03 23.5 °C 15.5 °C 1013.4 hPa NW 4.8 km/h 8.0 km/h 61% 0.0 mm 0 W/m2
02:08 23.3 °C 15.6 °C 1013.4 hPa WNW 4.8 km/h 8.0 km/h 62% 0.0 mm 0 W/m2
02:13 23.1 °C 15.6 °C 1013.4 hPa WNW 6.4 km/h 9.7 km/h 63% 0.0 mm 0 W/m2
02:18 22.9 °C 15.5 °C 1013.4 hPa WNW 4.8 km/h 9.7 km/h 63% 0.0 mm 0 W/m2
02:23 22.9 °C 15.7 °C 1013.8 hPa West 3.2 km/h 8.0 km/h 64% 0.0 mm 0 W/m2
02:28 22.8 °C 15.6 °C 1013.8 hPa South 1.6 km/h 4.8 km/h 64% 0.0 mm 0 W/m2
02:33 22.6 °C 15.5 °C 1013.8 hPa Calm   3.2 km/h 64% 0.0 mm 0 W/m2
02:38 22.5 °C 15.3 °C 1013.8 hPa SSW 1.6 km/h 6.4 km/h 64% 0.0 mm 0 W/m2
02:43 22.4 °C 15.5 °C 1013.8 hPa WSW 4.8 km/h 6.4 km/h 65% 0.0 mm 0 W/m2
02:48 22.3 °C 15.1 °C 1013.8 hPa West 4.8 km/h 6.4 km/h 64% 0.0 mm 0 W/m2
02:53 22.2 °C 15.1 °C 1013.8 hPa West 4.8 km/h 6.4 km/h 64% 0.0 mm 0 W/m2
02:58 22.2 °C 15.3 °C 1013.8 hPa WNW 4.8 km/h 6.4 km/h 65% 0.0 mm 0 W/m2
03:03 22.1 °C 15.2 °C 1013.8 hPa WNW 3.2 km/h 6.4 km/h 65% 0.0 mm 0 W/m2
03:08 22.1 °C 15.4 °C 1013.8 hPa WNW 4.8 km/h 6.4 km/h 66% 0.0 mm 0 W/m2
03:13 21.9 °C 15.3 °C 1013.8 hPa WNW 4.8 km/h 8.0 km/h 66% 0.0 mm 0 W/m2
03:18 21.8 °C 15.1 °C 1013.8 hPa West 4.8 km/h 8.0 km/h 66% 0.0 mm 0 W/m2
03:23 21.7 °C 15.0 °C 1013.8 hPa West 6.4 km/h 11.3 km/h 66% 0.0 mm 0 W/m2
03:28 21.6 °C 14.7 °C 1013.8 hPa West 6.4 km/h 11.3 km/h 65% 0.0 mm 0 W/m2
03:33 21.5 °C 14.6 °C 1013.8 hPa West 6.4 km/h 11.3 km/h 65% 0.0 mm 0 W/m2
03:38 21.6 °C 14.5 °C 1013.8 hPa West 6.4 km/h 11.3 km/h 64% 0.0 mm 0 W/m2
03:43 21.6 °C 14.5 °C 1013.4 hPa West 4.8 km/h 9.7 km/h 64% 0.0 mm 0 W/m2
03:48 21.6 °C 14.3 °C 1013.8 hPa West 3.2 km/h 6.4 km/h 63% 0.0 mm 0 W/m2
03:53 21.7 °C 14.6 °C 1013.8 hPa West 3.2 km/h 6.4 km/h 64% 0.0 mm 0 W/m2
03:58 21.7 °C 14.6 °C 1013.8 hPa West 4.8 km/h 8.0 km/h 64% 0.0 mm 0 W/m2
04:03 21.7 °C 14.3 °C 1013.8 hPa West 6.4 km/h 8.0 km/h 63% 0.0 mm 0 W/m2
04:08 21.7 °C 14.3 °C 1013.8 hPa West 4.8 km/h 8.0 km/h 63% 0.0 mm 0 W/m2
04:13 21.7 °C 14.6 °C 1013.8 hPa West 3.2 km/h 6.4 km/h 64% 0.0 mm 0 W/m2
04:18 21.7 °C 14.6 °C 1013.8 hPa West 1.6 km/h 6.4 km/h 64% 0.0 mm 0 W/m2
04:23 21.6 °C 14.7 °C 1013.8 hPa West 3.2 km/h 8.0 km/h 65% 0.0 mm 0 W/m2
04:28 21.5 °C 14.6 °C 1013.8 hPa West 3.2 km/h 8.0 km/h 65% 0.0 mm 0 W/m2
04:33 21.4 °C 14.3 °C 1013.8 hPa WSW 3.2 km/h 9.7 km/h 64% 0.0 mm 0 W/m2
04:38 21.4 °C 14.3 °C 1013.8 hPa WSW 4.8 km/h 9.7 km/h 64% 0.0 mm 0 W/m2
04:43 21.4 °C 14.1 °C 1013.8 hPa WSW 4.8 km/h 8.0 km/h 63% 0.0 mm 0 W/m2
04:48 21.5 °C 14.2 °C 1013.8 hPa WSW 4.8 km/h 9.7 km/h 63% 0.0 mm 0 W/m2
04:53 21.6 °C 14.0 °C 1013.8 hPa WSW 4.8 km/h 9.7 km/h 62% 0.0 mm 0 W/m2
04:58 21.7 °C 14.1 °C 1013.8 hPa WSW 4.8 km/h 9.7 km/h 62% 0.0 mm 0 W/m2
05:03 21.8 °C 13.9 °C 1013.8 hPa WSW 6.4 km/h 9.7 km/h 61% 0.0 mm 0 W/m2
05:08 21.8 °C 14.0 °C 1013.8 hPa WSW 4.8 km/h 9.7 km/h 61% 0.0 mm 0 W/m2
05:14 21.9 °C 14.3 °C 1013.8 hPa WSW 3.2 km/h 8.0 km/h 62% 0.0 mm 0 W/m2
05:19 21.9 °C 14.3 °C 1014.1 hPa SW 1.6 km/h 3.2 km/h 62% 0.0 mm 0 W/m2
05:24 21.9 °C 14.5 °C 1014.1 hPa WSW 1.6 km/h 6.4 km/h 63% 0.0 mm 0 W/m2
05:29 21.8 °C 14.4 °C 1014.1 hPa West 3.2 km/h 6.4 km/h 63% 0.0 mm 0 W/m2
05:34 21.7 °C 14.6 °C 1014.1 hPa West 4.8 km/h 8.0 km/h 64% 0.0 mm 0 W/m2
05:39 21.5 °C 14.4 °C 1014.1 hPa West 4.8 km/h 8.0 km/h 64% 0.0 mm 0 W/m2
05:44 21.4 °C 14.5 °C 1014.1 hPa West 4.8 km/h 6.4 km/h 65% 0.0 mm 0 W/m2
05:49 21.3 °C 14.2 °C 1014.1 hPa West 4.8 km/h 6.4 km/h 64% 0.0 mm 0 W/m2
05:54 21.2 °C 14.4 °C 1014.1 hPa West 3.2 km/h 6.4 km/h 65% 0.0 mm 0 W/m2
05:59 21.1 °C 14.2 °C 1014.1 hPa West 4.8 km/h 8.0 km/h 65% 0.0 mm 0 W/m2
06:04 21.0 °C 14.2 °C 1014.1 hPa West 4.8 km/h 8.0 km/h 65% 0.0 mm 0 W/m2
06:09 20.9 °C 14.1 °C 1014.1 hPa West 3.2 km/h 8.0 km/h 65% 0.0 mm 0 W/m2
06:14 21.0 °C 14.2 °C 1014.1 hPa West 1.6 km/h 4.8 km/h 65% 0.0 mm 0 W/m2
06:19 21.0 °C 14.2 °C 1014.1 hPa West 3.2 km/h 4.8 km/h 65% 0.0 mm 0 W/m2
06:24 21.1 °C 14.2 °C 1014.1 hPa West 3.2 km/h 4.8 km/h 65% 0.0 mm 0 W/m2
06:29 21.1 °C 14.3 °C 1014.1 hPa West 3.2 km/h 4.8 km/h 65% 0.0 mm 0 W/m2
06:34 21.1 °C 14.3 °C 1014.1 hPa West 3.2 km/h 4.8 km/h 65% 0.0 mm 0 W/m2
06:39 21.2 °C 14.3 °C 1014.1 hPa West 3.2 km/h 4.8 km/h 65% 0.0 mm 0 W/m2
06:44 21.2 °C 14.4 °C 1014.4 hPa West 1.6 km/h 4.8 km/h 65% 0.0 mm 0 W/m2
06:49 21.3 °C 14.7 °C 1014.4 hPa West 1.6 km/h 3.2 km/h 66% 0.0 mm 0 W/m2
06:54 21.3 °C 14.9 °C 1014.4 hPa West 1.6 km/h 4.8 km/h 67% 0.0 mm 0 W/m2
06:59 21.3 °C 14.7 °C 1014.4 hPa West 1.6 km/h 4.8 km/h 66% 0.0 mm 0 W/m2
07:04 21.3 °C 15.0 °C 1014.4 hPa West 1.6 km/h 4.8 km/h 67% 0.0 mm 0 W/m2
07:09 21.4 °C 15.1 °C 1014.4 hPa West 1.6 km/h 6.4 km/h 67% 0.0 mm 0 W/m2
07:14 21.6 °C 15.4 °C 1014.8 hPa West 3.2 km/h 6.4 km/h 68% 0.0 mm 0 W/m2
07:19 21.7 °C 15.3 °C 1014.8 hPa West 3.2 km/h 6.4 km/h 67% 0.0 mm 0 W/m2
07:24 21.9 °C 15.5 °C 1014.8 hPa West 3.2 km/h 6.4 km/h 67% 0.0 mm 0 W/m2
07:29 22.2 °C 16.0 °C 1014.8 hPa West 1.6 km/h 4.8 km/h 68% 0.0 mm 0 W/m2
07:34 22.3 °C 16.1 °C 1014.8 hPa West 1.6 km/h 4.8 km/h 68% 0.0 mm 0 W/m2
07:39 22.7 °C 16.7 °C 1014.8 hPa Calm   3.2 km/h 69% 0.0 mm 0 W/m2
07:44 22.9 °C 17.0 °C 1014.8 hPa Calm   3.2 km/h 69% 0.0 mm 0 W/m2
07:49 23.5 °C 17.3 °C 1014.8 hPa SW 1.6 km/h 6.4 km/h 68% 0.0 mm 0 W/m2
07:54 24.1 °C 17.4 °C 1014.8 hPa SSW 3.2 km/h 6.4 km/h 66% 0.0 mm 0 W/m2
07:59 24.6 °C 17.5 °C 1014.8 hPa South 3.2 km/h 4.8 km/h 65% 0.0 mm 0 W/m2
08:04 24.9 °C 17.1 °C 1015.1 hPa South 1.6 km/h 4.8 km/h 62% 0.0 mm 0 W/m2
08:09 25.1 °C 17.3 °C 1015.1 hPa Calm   3.2 km/h 62% 0.0 mm 0 W/m2
08:14 25.3 °C 17.0 °C 1015.1 hPa Calm   3.2 km/h 60% 0.0 mm 0 W/m2
08:19 25.6 °C 16.4 °C 1015.1 hPa SSW 1.6 km/h 3.2 km/h 57% 0.0 mm 0 W/m2
08:24 25.8 °C 16.6 °C 1015.1 hPa SSW 1.6 km/h 3.2 km/h 57% 0.0 mm 0 W/m2
08:29 26.0 °C 16.5 °C 1015.1 hPa SSW 1.6 km/h 3.2 km/h 56% 0.0 mm 0 W/m2
08:34 26.2 °C 16.7 °C 1015.1 hPa Calm   3.2 km/h 56% 0.0 mm 0 W/m2
08:39 26.4 °C 17.0 °C 1015.1 hPa SSW 1.6 km/h 3.2 km/h 56% 0.0 mm 0 W/m2
08:44 26.7 °C 17.5 °C 1015.1 hPa Calm   3.2 km/h 57% 0.0 mm 0 W/m2
08:49 27.1 °C 16.1 °C 1015.1 hPa Calm   1.6 km/h 51% 0.0 mm 0 W/m2
08:54 27.5 °C 17.1 °C 1015.1 hPa South 1.6 km/h 3.2 km/h 53% 0.0 mm 0 W/m2
08:59 27.3 °C 17.2 °C 1015.1 hPa South 1.6 km/h 3.2 km/h 54% 0.0 mm 0 W/m2
09:04 27.4 °C 17.3 °C 1015.1 hPa SSE 1.6 km/h 4.8 km/h 54% 0.0 mm 0 W/m2
09:09 27.4 °C 17.3 °C 1015.1 hPa SSE 1.6 km/h 4.8 km/h 54% 0.0 mm 0 W/m2
09:14 27.4 °C 17.3 °C 1015.1 hPa SE 1.6 km/h 4.8 km/h 54% 0.0 mm 0 W/m2
09:19 27.6 °C 17.5 °C 1015.1 hPa SE 1.6 km/h 4.8 km/h 54% 0.0 mm 0 W/m2
09:24 27.6 °C 17.8 °C 1015.1 hPa ESE 1.6 km/h 6.4 km/h 55% 0.0 mm 0 W/m2
09:29 27.1 °C 17.2 °C 1015.1 hPa ESE 3.2 km/h 6.4 km/h 55% 0.0 mm 0 W/m2
09:34 26.9 °C 17.4 °C 1015.1 hPa ESE 3.2 km/h 6.4 km/h 56% 0.0 mm 0 W/m2
09:39 27.7 °C 18.1 °C 1015.1 hPa ESE 3.2 km/h 6.4 km/h 56% 0.0 mm 0 W/m2
09:44 27.9 °C 18.4 °C 1015.1 hPa ESE 1.6 km/h 4.8 km/h 56% 0.0 mm 0 W/m2
09:49 28.0 °C 19.0 °C 1015.1 hPa East 3.2 km/h 8.0 km/h 58% 0.0 mm 0 W/m2
09:54 28.1 °C 19.3 °C 1015.1 hPa East 4.8 km/h 9.7 km/h 59% 0.0 mm 0 W/m2
09:59 28.2 °C 20.0 °C 1015.1 hPa East 4.8 km/h 9.7 km/h 61% 0.0 mm 0 W/m2
10:04 28.4 °C 19.3 °C 1015.1 hPa East 4.8 km/h 8.0 km/h 58% 0.0 mm 0 W/m2
10:09 28.7 °C 20.2 °C 1015.1 hPa ESE 4.8 km/h 8.0 km/h 60% 0.0 mm 0 W/m2
10:10 28.8 °C 18.3 °C 1015.1 hPa ESE 4.8 km/h 8.0 km/h 53% 0.0 mm 0 W/m2
10:15 29.2 °C 18.4 °C 1015.1 hPa ESE 4.8 km/h 8.0 km/h 52% 0.0 mm 0 W/m2
10:20 29.3 °C 18.8 °C 1015.1 hPa ESE 4.8 km/h 8.0 km/h 53% 0.0 mm 0 W/m2
10:25 29.3 °C 19.0 °C 1015.1 hPa ESE 4.8 km/h 8.0 km/h 54% 0.0 mm 0 W/m2
10:30 29.2 °C 19.3 °C 1015.1 hPa ESE 4.8 km/h 6.4 km/h 55% 0.0 mm 0 W/m2
10:35 29.2 °C 20.3 °C 1015.1 hPa ESE 3.2 km/h 6.4 km/h 59% 0.0 mm 0 W/m2
10:40 29.2 °C 19.8 °C 1015.1 hPa ESE 4.8 km/h 6.4 km/h 57% 0.0 mm 0 W/m2
10:45 29.2 °C 19.8 °C 1015.1 hPa ESE 4.8 km/h 9.7 km/h 57% 0.0 mm 0 W/m2
10:50 29.2 °C 20.7 °C 1015.1 hPa East 6.4 km/h 9.7 km/h 60% 0.0 mm 0 W/m2
10:55 29.2 °C 20.1 °C 1015.1 hPa East 6.4 km/h 9.7 km/h 58% 0.0 mm 0 W/m2
11:00 29.3 °C 20.2 °C 1015.1 hPa East 6.4 km/h 11.3 km/h 58% 0.0 mm 0 W/m2
11:05 29.4 °C 19.7 °C 1015.5 hPa East 8.0 km/h 12.9 km/h 56% 0.0 mm 0 W/m2
11:10 29.7 °C 19.4 °C 1015.5 hPa East 8.0 km/h 12.9 km/h 54% 0.0 mm 0 W/m2
11:15 29.8 °C 19.8 °C 1015.5 hPa East 6.4 km/h 11.3 km/h 55% 0.0 mm 0 W/m2
11:20 29.7 °C 20.0 °C 1015.5 hPa East 6.4 km/h 9.7 km/h 56% 0.0 mm 0 W/m2
11:25 29.6 °C 19.9 °C 1015.5 hPa East 6.4 km/h 9.7 km/h 56% 0.0 mm 0 W/m2
11:30 29.6 °C 19.6 °C 1015.5 hPa ENE 8.0 km/h 9.7 km/h 55% 0.0 mm 0 W/m2
11:35 29.3 °C 19.3 °C 1015.5 hPa ENE 8.0 km/h 9.7 km/h 55% 0.0 mm 0 W/m2
11:40 28.9 °C 19.5 °C 1015.5 hPa ENE 6.4 km/h 8.0 km/h 57% 0.0 mm 0 W/m2
11:45 28.7 °C 20.4 °C 1015.5 hPa ENE 6.4 km/h 11.3 km/h 61% 0.0 mm 0 W/m2
11:46 28.6 °C 20.0 °C 1015.5 hPa ENE 8.0 km/h 11.3 km/h 60% 0.0 mm 0 W/m2
11:51 28.4 °C 20.1 °C 1015.5 hPa ENE 8.0 km/h 11.3 km/h 61% 0.0 mm 0 W/m2
11:56 29.1 °C 20.3 °C 1015.5 hPa ENE 8.0 km/h 11.3 km/h 59% 0.0 mm 0 W/m2
12:01 29.1 °C 19.7 °C 1015.5 hPa ENE 6.4 km/h 11.3 km/h 57% 0.0 mm 0 W/m2
12:06 29.2 °C 19.5 °C 1015.5 hPa ENE 4.8 km/h 8.0 km/h 56% 0.0 mm 0 W/m2
12:11 29.7 °C 20.0 °C 1015.5 hPa ENE 4.8 km/h 8.0 km/h 56% 0.0 mm 0 W/m2
12:16 30.1 °C 20.1 °C 1015.5 hPa East 4.8 km/h 8.0 km/h 55% 0.0 mm 0 W/m2
12:21 30.0 °C 20.3 °C 1015.5 hPa East 4.8 km/h 8.0 km/h 56% 0.0 mm 0 W/m2
12:26 30.2 °C 20.4 °C 1015.5 hPa East 4.8 km/h 8.0 km/h 56% 0.0 mm 0 W/m2
12:31 30.2 °C 20.5 °C 1015.5 hPa East 4.8 km/h 8.0 km/h 56% 0.0 mm 0 W/m2
12:33 30.2 °C 20.5 °C 1015.5 hPa ESE 4.8 km/h 9.7 km/h 56% 0.0 mm 0 W/m2
12:38 30.3 °C 20.2 °C 1015.5 hPa East 4.8 km/h 9.7 km/h 55% 0.0 mm 0 W/m2
12:44 30.4 °C 20.4 °C 1015.5 hPa ESE 4.8 km/h 8.0 km/h 55% 0.0 mm 0 W/m2
12:45 30.4 °C 20.7 °C 1015.5 hPa ESE 4.8 km/h 8.0 km/h 56% 0.0 mm 0 W/m2
12:50 30.3 °C 20.5 °C 1015.5 hPa East 4.8 km/h 8.0 km/h 56% 0.0 mm 0 W/m2
12:55 30.1 °C 20.6 °C 1015.5 hPa ENE 3.2 km/h 8.0 km/h 57% 0.0 mm 0 W/m2
12:57 30.0 °C 20.8 °C 1015.5 hPa ENE 3.2 km/h 8.0 km/h 58% 0.0 mm 0 W/m2
13:02 29.9 °C 20.2 °C 1015.5 hPa ENE 3.2 km/h 6.4 km/h 56% 0.0 mm 0 W/m2
13:07 30.3 °C 20.8 °C 1015.5 hPa East 3.2 km/h 6.4 km/h 57% 0.0 mm 0 W/m2
13:12 30.3 °C 20.8 °C 1015.5 hPa East 3.2 km/h 6.4 km/h 57% 0.0 mm 0 W/m2
13:17 30.3 °C 21.4 °C 1015.5 hPa East 3.2 km/h 8.0 km/h 59% 0.0 mm 0 W/m2
13:22 30.3 °C 21.6 °C 1015.5 hPa East 3.2 km/h 8.0 km/h 60% 0.0 mm 0 W/m2
13:27 30.9 °C 21.1 °C 1015.5 hPa East 4.8 km/h 9.7 km/h 56% 0.0 mm 0 W/m2
13:32 31.4 °C 21.0 °C 1015.5 hPa East 6.4 km/h 12.9 km/h 54% 0.0 mm 0 W/m2
13:37 31.4 °C 20.7 °C 1015.5 hPa East 6.4 km/h 12.9 km/h 53% 0.0 mm 0 W/m2
13:42 31.6 °C 21.2 °C 1015.1 hPa East 8.0 km/h 12.9 km/h 54% 0.0 mm 0 W/m2
13:47 31.6 °C 20.6 °C 1015.1 hPa ESE 8.0 km/h 12.9 km/h 52% 0.0 mm 0 W/m2
13:52 31.7 °C 20.3 °C 1015.1 hPa East 8.0 km/h 11.3 km/h 51% 0.0 mm 0 W/m2
13:57 31.6 °C 20.9 °C 1015.1 hPa East 6.4 km/h 11.3 km/h 53% 0.0 mm 0 W/m2
14:02 31.4 °C 21.0 °C 1015.1 hPa ENE 4.8 km/h 9.7 km/h 54% 0.0 mm 0 W/m2
14:07 30.9 °C 20.8 °C 1015.1 hPa ENE 4.8 km/h 8.0 km/h 55% 0.0 mm 0 W/m2
14:12 30.8 °C 20.7 °C 1015.1 hPa ENE 6.4 km/h 11.3 km/h 55% 0.0 mm 0 W/m2
14:17 30.5 °C 20.7 °C 1014.8 hPa ENE 6.4 km/h 11.3 km/h 56% 0.0 mm 0 W/m2
14:22 30.8 °C 21.0 °C 1014.8 hPa ENE 8.0 km/h 11.3 km/h 56% 0.0 mm 0 W/m2
14:28 30.9 °C 20.8 °C 1014.8 hPa ENE 9.7 km/h 14.5 km/h 55% 0.0 mm 0 W/m2
14:33 31.3 °C 21.7 °C 1014.8 hPa East 9.7 km/h 14.5 km/h 57% 0.0 mm 0 W/m2
14:38 31.1 °C 21.5 °C 1014.8 hPa East 9.7 km/h 14.5 km/h 57% 0.0 mm 0 W/m2
14:43 31.2 °C 21.3 °C 1014.8 hPa East 9.7 km/h 14.5 km/h 56% 0.0 mm 0 W/m2
14:48 31.2 °C 22.3 °C 1014.8 hPa East 9.7 km/h 14.5 km/h 59% 0.0 mm 0 W/m2
14:53 30.9 °C 22.3 °C 1014.8 hPa East 11.3 km/h 16.1 km/h 60% 0.0 mm 0 W/m2
14:58 30.8 °C 22.4 °C 1014.8 hPa East 9.7 km/h 16.1 km/h 61% 0.0 mm 0 W/m2
15:03 30.5 °C 22.1 °C 1014.8 hPa East 9.7 km/h 12.9 km/h 61% 0.0 mm 0 W/m2
15:08 30.6 °C 21.6 °C 1014.8 hPa ENE 9.7 km/h 12.9 km/h 59% 0.0 mm 0 W/m2
15:13 30.6 °C 21.4 °C 1014.8 hPa ENE 9.7 km/h 12.9 km/h 58% 0.0 mm 0 W/m2
15:18 30.5 °C 21.6 °C 1014.4 hPa ENE 8.0 km/h 12.9 km/h 59% 0.0 mm 0 W/m2
15:23 29.9 °C 20.4 °C 1014.4 hPa ENE 8.0 km/h 12.9 km/h 57% 0.0 mm 0 W/m2
15:28 29.6 °C 20.1 °C 1014.4 hPa NE 8.0 km/h 11.3 km/h 57% 0.0 mm 0 W/m2
15:33 29.6 °C 20.7 °C 1014.4 hPa NE 6.4 km/h 11.3 km/h 59% 0.0 mm 0 W/m2
15:38 29.8 °C 21.0 °C 1014.4 hPa NE 8.0 km/h 11.3 km/h 59% 0.0 mm 0 W/m2
15:43 29.8 °C 20.9 °C 1014.4 hPa NE 8.0 km/h 11.3 km/h 59% 0.0 mm 0 W/m2
15:48 29.9 °C 21.1 °C 1014.4 hPa ENE 8.0 km/h 11.3 km/h 59% 0.0 mm 0 W/m2
15:53 29.4 °C 21.3 °C 1014.4 hPa ENE 8.0 km/h 12.9 km/h 62% 0.0 mm 0 W/m2
15:58 29.8 °C 21.4 °C 1014.4 hPa NE 8.0 km/h 12.9 km/h 61% 0.0 mm 0 W/m2
16:03 30.1 °C 21.5 °C 1014.4 hPa ENE 6.4 km/h 9.7 km/h 60% 0.0 mm 0 W/m2
16:08 30.5 °C 21.6 °C 1014.4 hPa ENE 4.8 km/h 11.3 km/h 59% 0.0 mm 0 W/m2
16:13 30.7 °C 21.2 °C 1014.4 hPa NE 6.4 km/h 11.3 km/h 57% 0.0 mm 0 W/m2
16:18 30.8 °C 21.0 °C 1014.4 hPa NE 6.4 km/h 11.3 km/h 56% 0.0 mm 0 W/m2
16:23 30.8 °C 20.7 °C 1014.1 hPa NE 6.4 km/h 9.7 km/h 55% 0.0 mm 0 W/m2
16:28 30.7 °C 21.2 °C 1014.1 hPa NE 6.4 km/h 11.3 km/h 57% 0.0 mm 0 W/m2
16:33 30.5 °C 20.7 °C 1014.1 hPa ENE 6.4 km/h 11.3 km/h 56% 0.0 mm 0 W/m2
16:38 30.7 °C 21.2 °C 1014.1 hPa NE 6.4 km/h 11.3 km/h 57% 0.0 mm 0 W/m2
16:43 30.7 °C 20.9 °C 1014.1 hPa NE 6.4 km/h 11.3 km/h 56% 0.0 mm 0 W/m2
16:48 30.6 °C 20.5 °C 1014.1 hPa NE 6.4 km/h 11.3 km/h 55% 0.0 mm 0 W/m2
16:53 30.6 °C 20.2 °C 1014.1 hPa NE 6.4 km/h 9.7 km/h 54% 0.0 mm 0 W/m2
16:58 30.4 °C 20.7 °C 1014.1 hPa NE 6.4 km/h 8.0 km/h 56% 0.0 mm 0 W/m2
17:03 30.3 °C 20.5 °C 1014.1 hPa NE 6.4 km/h 11.3 km/h 56% 0.0 mm 0 W/m2
17:08 30.3 °C 20.9 °C 1014.1 hPa NE 6.4 km/h 11.3 km/h 57% 0.0 mm 0 W/m2
17:13 30.3 °C 20.8 °C 1013.8 hPa NE 6.4 km/h 9.7 km/h 57% 0.0 mm 0 W/m2
17:18 30.1 °C 20.7 °C 1013.8 hPa NE 6.4 km/h 9.7 km/h 57% 0.0 mm 0 W/m2
17:19 30.1 °C 20.6 °C 1014.1 hPa NE 6.4 km/h 9.7 km/h 57% 0.0 mm 0 W/m2
17:24 29.9 °C 19.9 °C 1013.8 hPa NE 6.4 km/h 11.3 km/h 55% 0.0 mm 0 W/m2
17:25 29.9 °C 19.9 °C 1013.8 hPa NE 6.4 km/h 11.3 km/h 55% 0.0 mm 0 W/m2
17:30 29.7 °C 20.3 °C 1013.8 hPa NE 6.4 km/h 11.3 km/h 57% 0.0 mm 0 W/m2
17:35 29.6 °C 20.7 °C 1013.8 hPa NE 6.4 km/h 11.3 km/h 59% 0.0 mm 0 W/m2
17:40 29.4 °C 20.0 °C 1013.8 hPa NE 8.0 km/h 11.3 km/h 57% 0.0 mm 0 W/m2
17:45 29.4 °C 20.5 °C 1013.8 hPa NE 8.0 km/h 12.9 km/h 59% 0.0 mm 0 W/m2
17:50 29.3 °C 20.7 °C 1013.8 hPa NE 8.0 km/h 12.9 km/h 60% 0.0 mm 0 W/m2
Asprovalta, Central Macedonia, GREECE
Compliments of Weather Underground - 2 mb